createdAt,value
2023-05-21T00:01:45.619Z,9.13
2023-05-21T00:04:13.158Z,10.25
2023-05-21T00:06:40.217Z,7.82
2023-05-21T00:09:07.533Z,6.40
2023-05-21T00:11:34.728Z,6.13
2023-05-21T00:14:01.988Z,5.50
2023-05-21T00:16:29.091Z,6.78
2023-05-21T00:18:58.075Z,5.45
2023-05-21T00:21:26.125Z,8.27
2023-05-21T00:23:57.065Z,5.75
2023-05-21T00:26:24.186Z,6.60
2023-05-21T00:28:54.587Z,5.78
2023-05-21T00:31:21.750Z,5.53
2023-05-21T00:33:48.799Z,6.70
2023-05-21T00:36:15.879Z,6.78
2023-05-21T00:38:44.154Z,6.45
2023-05-21T00:41:11.680Z,6.10
2023-05-21T00:43:42.127Z,6.10
2023-05-21T00:46:13.914Z,6.05
2023-05-21T00:48:40.988Z,6.68
2023-05-21T00:51:08.000Z,8.60
2023-05-21T00:53:35.658Z,6.25
2023-05-21T00:56:03.710Z,6.70
2023-05-21T00:58:33.599Z,6.03
2023-05-21T01:01:07.011Z,10.13
2023-05-21T01:03:38.752Z,7.40
2023-05-21T01:06:08.386Z,5.45
2023-05-21T01:08:37.605Z,7.40
2023-05-21T01:11:06.591Z,7.50
2023-05-21T01:13:37.394Z,7.35
2023-05-21T01:16:06.746Z,5.78
2023-05-21T01:18:37.760Z,7.28
2023-05-21T01:21:07.482Z,6.00
2023-05-21T01:23:34.805Z,7.53
2023-05-21T01:26:01.964Z,6.50
2023-05-21T01:28:29.776Z,7.60
2023-05-21T01:31:03.139Z,6.82
2023-05-21T01:33:39.035Z,9.65
2023-05-21T01:36:24.359Z,8.85
2023-05-21T01:39:18.456Z,6.63
2023-05-21T01:41:46.274Z,7.82
2023-05-21T01:44:15.038Z,6.30
2023-05-21T01:46:42.050Z,8.90
2023-05-21T01:49:09.299Z,7.25
2023-05-21T01:51:37.098Z,8.50
2023-05-21T01:54:04.072Z,6.18
2023-05-21T01:56:33.748Z,7.07
2023-05-21T02:01:30.181Z,7.45
2023-05-21T02:03:58.143Z,6.38
2023-05-21T02:06:25.987Z,8.05
2023-05-21T02:08:52.941Z,7.05
2023-05-21T02:11:20.019Z,7.35
2023-05-21T02:13:47.065Z,8.10
2023-05-21T02:16:15.810Z,7.07
2023-05-21T02:18:43.544Z,7.07
2023-05-21T02:21:14.031Z,6.78
2023-05-21T02:23:42.554Z,9.65
2023-05-21T02:26:09.564Z,6.13
2023-05-21T02:28:36.606Z,6.13
2023-05-21T02:31:03.993Z,6.47
2023-05-21T02:33:30.994Z,8.27
2023-05-21T02:35:58.022Z,8.48
2023-05-21T02:38:25.794Z,7.95
2023-05-21T02:40:53.112Z,7.50
2023-05-21T02:43:20.207Z,6.97
2023-05-21T02:45:47.653Z,7.88
2023-05-21T02:48:14.993Z,6.60
2023-05-21T02:50:42.488Z,9.40
2023-05-21T02:53:09.559Z,5.68
2023-05-21T02:55:36.730Z,5.78
2023-05-21T02:58:03.949Z,6.63
2023-05-21T03:00:31.131Z,8.63
2023-05-21T03:02:59.993Z,7.18
2023-05-21T03:05:27.495Z,8.20
2023-05-21T03:07:54.585Z,5.80
2023-05-21T03:10:21.872Z,7.90
2023-05-21T03:12:51.016Z,7.22
2023-05-21T03:15:18.123Z,7.10
2023-05-21T03:17:45.192Z,6.32
2023-05-21T03:20:18.625Z,6.13
2023-05-21T03:22:46.440Z,6.03
2023-05-21T03:25:13.660Z,7.63
2023-05-21T03:27:41.033Z,7.25
2023-05-21T03:30:20.043Z,6.43
2023-05-21T03:33:07.363Z,7.65
2023-05-21T03:35:34.905Z,7.65
2023-05-21T03:38:02.052Z,7.45
2023-05-21T03:40:29.108Z,6.20
2023-05-21T03:42:56.110Z,7.40
2023-05-21T03:45:23.139Z,6.68
2023-05-21T03:48:25.214Z,9.10
2023-05-21T03:50:52.373Z,6.95
2023-05-21T03:53:19.419Z,7.28
2023-05-21T03:55:47.191Z,8.23
2023-05-21T03:58:14.122Z,7.40
2023-05-21T04:00:41.184Z,6.65
2023-05-21T04:03:08.312Z,6.30
2023-05-21T04:05:35.582Z,6.28
2023-05-21T04:08:02.712Z,8.63
2023-05-21T04:10:29.803Z,9.13
2023-05-21T04:12:56.743Z,7.03
2023-05-21T04:15:24.597Z,8.40
2023-05-21T04:17:52.403Z,7.45
2023-05-21T04:20:19.479Z,7.40
2023-05-21T04:22:46.580Z,8.93
2023-05-21T04:25:14.176Z,7.47
2023-05-21T04:27:42.686Z,6.40
2023-05-21T04:30:11.171Z,8.32
2023-05-21T04:32:39.336Z,7.80
2023-05-21T04:35:08.360Z,10.52
2023-05-21T04:37:36.247Z,7.38
2023-05-21T04:40:04.257Z,7.07
2023-05-21T04:42:32.916Z,9.55
2023-05-21T04:45:00.215Z,10.43
2023-05-21T04:47:30.470Z,9.05
2023-05-21T04:49:59.413Z,6.63
2023-05-21T04:52:27.971Z,8.75
2023-05-21T04:54:55.010Z,9.82
2023-05-21T04:57:24.616Z,9.32
2023-05-21T04:59:52.623Z,8.70
2023-05-21T05:02:19.639Z,7.95
2023-05-21T05:04:46.593Z,7.07
2023-05-21T05:07:13.786Z,7.20
2023-05-21T05:09:40.871Z,7.60
2023-05-21T05:12:08.692Z,7.13
2023-05-21T05:14:36.057Z,6.43
2023-05-21T05:17:03.307Z,10.75
2023-05-21T05:19:31.963Z,9.63
2023-05-21T05:21:59.138Z,7.97
2023-05-21T05:24:26.181Z,8.38
2023-05-21T05:26:53.249Z,7.72
2023-05-21T05:29:20.501Z,9.10
2023-05-21T05:31:48.021Z,7.22
2023-05-21T05:34:15.871Z,9.18
2023-05-21T05:36:42.798Z,7.28
2023-05-21T05:39:10.273Z,8.60
2023-05-21T05:41:38.158Z,9.35
2023-05-21T05:44:05.966Z,6.65
2023-05-21T05:46:36.497Z,7.03
2023-05-21T05:49:03.701Z,9.00
2023-05-21T05:51:30.750Z,8.55
2023-05-21T05:53:58.124Z,8.57
2023-05-21T05:56:25.136Z,11.02
2023-05-21T05:58:52.477Z,10.13
2023-05-21T06:01:19.615Z,8.35
2023-05-21T06:03:47.419Z,7.10
2023-05-21T06:06:17.261Z,12.02
2023-05-21T06:08:44.865Z,8.00
2023-05-21T06:11:12.694Z,8.63
2023-05-21T06:13:40.030Z,7.82
2023-05-21T06:16:09.924Z,7.05
2023-05-21T06:21:04.873Z,10.02
2023-05-21T06:23:32.708Z,6.80
2023-05-21T06:26:00.116Z,10.25
2023-05-21T06:28:27.410Z,8.98
2023-05-21T06:30:55.011Z,9.10
2023-05-21T06:33:22.075Z,9.60
2023-05-21T06:35:49.178Z,9.07
2023-05-21T06:38:16.161Z,8.25
2023-05-21T06:40:44.600Z,9.07
2023-05-21T06:43:14.810Z,9.77
2023-05-21T06:46:01.567Z,7.65
2023-05-21T06:48:37.714Z,10.70
2023-05-21T06:51:04.857Z,10.15
2023-05-21T06:53:31.968Z,9.65
2023-05-21T06:55:58.908Z,9.82
2023-05-21T06:58:55.511Z,13.52
2023-05-21T07:01:23.610Z,9.35
2023-05-21T07:03:50.707Z,10.48
2023-05-21T07:06:18.411Z,12.88
2023-05-21T07:08:46.316Z,12.15
2023-05-21T07:11:13.645Z,11.30
2023-05-21T07:13:41.110Z,10.68
2023-05-21T07:16:08.403Z,12.50
2023-05-21T07:18:37.674Z,11.88
2023-05-21T07:21:04.674Z,11.30
2023-05-21T07:23:31.678Z,11.85
2023-05-21T07:25:58.724Z,10.90
2023-05-21T07:28:25.774Z,11.60
2023-05-21T07:30:52.956Z,10.70
2023-05-21T07:33:27.881Z,9.10
2023-05-21T07:35:55.069Z,11.15
2023-05-21T07:38:22.030Z,13.32
2023-05-21T07:40:49.127Z,10.60
2023-05-21T07:43:16.197Z,11.43
2023-05-21T07:45:43.226Z,15.00
2023-05-21T07:48:10.266Z,11.23
2023-05-21T07:50:43.572Z,14.35
2023-05-21T07:53:10.731Z,11.02
2023-05-21T07:55:38.401Z,10.68
2023-05-21T07:58:05.759Z,10.75
2023-05-21T08:00:44.922Z,12.77
2023-05-21T08:03:12.514Z,12.05
2023-05-21T08:05:39.731Z,13.75
2023-05-21T08:08:06.759Z,11.32
2023-05-21T08:10:34.132Z,11.52
2023-05-21T08:13:01.405Z,14.15
2023-05-21T08:15:28.357Z,12.00
2023-05-21T08:17:55.502Z,12.82
2023-05-21T08:20:23.020Z,11.73
2023-05-21T08:22:50.711Z,14.05
2023-05-21T08:25:17.721Z,11.88
2023-05-21T08:27:44.735Z,12.18
2023-05-21T08:30:12.013Z,13.63
2023-05-21T08:32:39.164Z,14.48
2023-05-21T08:35:07.324Z,11.80
2023-05-21T08:37:45.780Z,14.05
2023-05-21T08:40:41.526Z,15.75
2023-05-21T08:43:13.785Z,14.18
2023-05-21T08:45:54.803Z,13.13
2023-05-21T08:48:24.669Z,14.65
2023-05-21T08:50:53.637Z,15.88
2023-05-21T08:53:29.024Z,14.70
2023-05-21T08:55:57.674Z,18.48
2023-05-21T08:58:33.771Z,18.27
2023-05-21T09:01:01.379Z,25.15
2023-05-21T09:03:29.760Z,16.65
2023-05-21T09:05:57.522Z,19.30
2023-05-21T09:08:36.565Z,15.90
2023-05-21T09:11:07.727Z,15.73
2023-05-21T09:13:41.919Z,16.80
2023-05-21T09:16:14.522Z,16.48
2023-05-21T09:18:42.125Z,22.30
2023-05-21T09:21:29.128Z,16.60
2023-05-21T09:24:02.003Z,59.47
2023-05-21T09:26:29.862Z,19.50
2023-05-21T09:29:01.561Z,21.55
2023-05-21T09:31:29.988Z,54.72
2023-05-21T09:33:57.223Z,35.67
2023-05-21T09:36:25.912Z,20.05
2023-05-21T09:38:53.950Z,24.90
2023-05-21T09:41:22.317Z,34.20
2023-05-21T09:43:49.766Z,21.88
2023-05-21T09:46:23.587Z,32.58
2023-05-21T09:48:50.781Z,20.55
2023-05-21T09:51:21.837Z,23.52
2023-05-21T09:53:53.004Z,26.38
2023-05-21T09:56:25.021Z,21.00
2023-05-21T09:58:57.241Z,19.63
2023-05-21T10:01:25.172Z,20.77
2023-05-21T10:03:57.795Z,18.77
2023-05-21T10:06:28.288Z,17.83
2023-05-21T10:08:57.411Z,19.02
2023-05-21T10:11:27.247Z,19.33
2023-05-21T10:14:22.580Z,18.45
2023-05-21T10:19:18.056Z,18.67
2023-05-21T10:21:46.372Z,16.38
2023-05-21T10:24:16.661Z,17.67
2023-05-21T10:26:44.939Z,19.45
2023-05-21T10:29:15.632Z,18.60
2023-05-21T10:31:49.781Z,17.55
2023-05-21T10:34:17.611Z,22.25
2023-05-21T10:36:45.169Z,18.42
2023-05-21T10:39:13.381Z,21.42
2023-05-21T10:42:00.341Z,17.77
2023-05-21T10:45:04.244Z,18.88
2023-05-21T10:47:54.485Z,17.23
2023-05-21T10:50:29.889Z,17.60
2023-05-21T10:53:18.124Z,18.17
2023-05-21T10:56:22.276Z,19.90
2023-05-21T10:59:21.741Z,19.23
2023-05-21T11:01:53.314Z,19.15
2023-05-21T11:04:41.919Z,19.45
2023-05-21T11:07:09.275Z,17.80
2023-05-21T11:09:36.289Z,18.20
2023-05-21T11:12:04.698Z,18.92
2023-05-21T11:14:40.714Z,18.80
2023-05-21T11:17:16.937Z,18.63
2023-05-21T11:19:50.876Z,17.90
2023-05-21T11:22:27.459Z,18.67
2023-05-21T11:24:56.401Z,17.65
2023-05-21T11:27:39.878Z,18.80
2023-05-21T11:30:16.330Z,16.48
2023-05-21T11:33:07.955Z,18.90
2023-05-21T11:35:50.141Z,19.38
2023-05-21T11:38:18.168Z,20.02
2023-05-21T11:40:55.489Z,17.63
2023-05-21T11:43:22.754Z,18.45
2023-05-21T11:45:53.152Z,18.95
2023-05-21T11:48:27.102Z,21.42
2023-05-21T11:50:54.957Z,22.75
2023-05-21T11:53:22.094Z,18.38
2023-05-21T11:55:50.762Z,19.88
2023-05-21T11:58:19.690Z,18.70
2023-05-21T12:00:51.071Z,18.58
2023-05-21T12:03:18.702Z,18.23
2023-05-21T12:05:49.680Z,19.27
2023-05-21T12:08:25.956Z,19.13
2023-05-21T12:11:00.007Z,21.20
2023-05-21T12:13:28.284Z,20.20
2023-05-21T12:15:55.344Z,19.67
2023-05-21T12:18:22.532Z,19.50
2023-05-21T12:20:51.984Z,22.52
2023-05-21T12:23:25.365Z,19.20
2023-05-21T12:25:53.831Z,20.20
2023-05-21T12:28:24.766Z,18.70
2023-05-21T12:30:53.416Z,17.80
2023-05-21T12:33:21.638Z,17.70
2023-05-21T12:35:50.540Z,16.90
2023-05-21T12:38:18.177Z,17.52
2023-05-21T12:40:45.596Z,19.67
2023-05-21T12:43:12.969Z,19.10
2023-05-21T12:45:40.061Z,18.75
2023-05-21T12:48:07.257Z,19.35
2023-05-21T12:50:35.869Z,19.10
2023-05-21T12:53:03.230Z,19.98
2023-05-21T12:55:31.678Z,19.08
2023-05-21T12:58:08.073Z,19.80
2023-05-21T13:00:35.876Z,20.67
2023-05-21T13:03:06.071Z,18.30
2023-05-21T13:05:33.501Z,17.75
2023-05-21T13:08:00.516Z,19.15
2023-05-21T13:10:27.477Z,19.50
2023-05-21T13:12:54.886Z,17.85
2023-05-21T13:15:21.967Z,19.45
2023-05-21T13:17:50.648Z,20.92
2023-05-21T13:20:21.676Z,18.17
2023-05-21T13:22:51.801Z,19.38
2023-05-21T13:25:24.896Z,20.15
2023-05-21T13:27:53.323Z,19.45
2023-05-21T13:30:21.492Z,19.02
2023-05-21T13:32:48.974Z,19.42
2023-05-21T13:35:16.597Z,17.83
2023-05-21T13:37:44.061Z,20.80
2023-05-21T13:40:16.327Z,20.05
2023-05-21T13:42:45.531Z,17.98
2023-05-21T13:45:15.145Z,18.55
2023-05-21T13:47:43.841Z,17.48
2023-05-21T13:50:11.609Z,16.85
2023-05-21T13:52:39.251Z,19.20
2023-05-21T13:55:06.972Z,19.38
2023-05-21T13:57:34.136Z,17.95
2023-05-21T14:00:01.503Z,17.65
2023-05-21T14:02:29.012Z,18.85
2023-05-21T14:04:56.169Z,18.33
2023-05-21T14:07:23.168Z,18.83
2023-05-21T14:09:50.364Z,17.15
2023-05-21T14:12:17.599Z,19.20
2023-05-21T14:14:44.717Z,19.35
2023-05-21T14:17:11.809Z,18.98
2023-05-21T14:19:38.746Z,20.23
2023-05-21T14:22:05.856Z,18.85
2023-05-21T14:24:32.824Z,19.42
2023-05-21T14:26:59.773Z,18.42
2023-05-21T14:29:26.735Z,18.27
2023-05-21T14:31:53.904Z,18.75
2023-05-21T14:34:20.881Z,18.77
2023-05-21T14:36:47.884Z,17.98
2023-05-21T14:39:14.970Z,19.42
2023-05-21T14:41:41.919Z,19.25
2023-05-21T14:44:08.916Z,18.92
2023-05-21T14:46:36.862Z,18.08
2023-05-21T14:49:04.120Z,19.95
2023-05-21T14:51:31.641Z,17.92
2023-05-21T14:53:58.958Z,18.80
2023-05-21T14:56:27.618Z,18.95
2023-05-21T14:58:55.031Z,18.13
2023-05-21T15:01:22.189Z,19.50
2023-05-21T15:03:49.647Z,18.60
2023-05-21T15:06:16.939Z,17.95
2023-05-21T15:08:43.974Z,17.42
2023-05-21T15:11:11.531Z,16.30
2023-05-21T15:13:39.608Z,17.10
2023-05-21T15:16:06.941Z,17.17
2023-05-21T15:18:34.145Z,17.15
2023-05-21T15:21:01.577Z,17.63
2023-05-21T15:23:28.753Z,17.10
2023-05-21T15:25:55.927Z,18.02
2023-05-21T15:28:23.069Z,19.27
2023-05-21T15:30:50.339Z,18.42
2023-05-21T15:33:17.533Z,18.40
2023-05-21T15:35:44.740Z,17.80
2023-05-21T15:38:12.288Z,17.42
2023-05-21T15:40:42.696Z,19.08
2023-05-21T15:43:09.698Z,17.92
2023-05-21T15:45:38.326Z,18.85
2023-05-21T15:48:06.154Z,17.92
2023-05-21T15:50:35.355Z,17.25
2023-05-21T15:53:06.035Z,18.77
2023-05-21T15:55:33.916Z,19.73
2023-05-21T15:58:02.548Z,18.45
2023-05-21T16:00:29.774Z,18.85
2023-05-21T16:02:56.811Z,19.42
2023-05-21T16:05:23.820Z,18.75
2023-05-21T16:07:50.854Z,18.15
2023-05-21T16:10:17.822Z,18.75
2023-05-21T16:12:44.811Z,18.95
2023-05-21T16:15:11.951Z,19.50
2023-05-21T16:17:38.899Z,20.75
2023-05-21T16:20:07.217Z,19.50
2023-05-21T16:22:34.148Z,20.52
2023-05-21T16:25:01.113Z,19.50
2023-05-21T16:27:28.096Z,21.10
2023-05-21T16:29:55.065Z,21.15
2023-05-21T16:32:22.385Z,19.58
2023-05-21T16:34:49.599Z,19.30
2023-05-21T16:37:16.513Z,19.35
2023-05-21T16:39:43.903Z,18.40
2023-05-21T16:42:10.888Z,18.38
2023-05-21T16:44:38.364Z,20.33
2023-05-21T16:47:05.483Z,21.20
2023-05-21T16:49:32.522Z,18.55
2023-05-21T16:51:59.536Z,17.35
2023-05-21T16:54:27.372Z,19.88
2023-05-21T16:56:54.987Z,19.27
2023-05-21T16:59:21.955Z,20.35
2023-05-21T17:01:48.949Z,20.92
2023-05-21T17:04:16.066Z,19.35
2023-05-21T17:06:43.022Z,19.35
2023-05-21T17:09:09.925Z,19.80
2023-05-21T17:11:36.896Z,19.83
2023-05-21T17:14:03.909Z,20.20
2023-05-21T17:16:31.120Z,19.30
2023-05-21T17:18:58.229Z,19.73
2023-05-21T17:21:26.692Z,21.58
2023-05-21T17:23:53.628Z,20.38
2023-05-21T17:26:23.129Z,21.58
2023-05-21T17:28:50.075Z,21.45
2023-05-21T17:31:17.068Z,21.25
2023-05-21T17:33:44.151Z,21.73
2023-05-21T17:36:11.070Z,20.58
2023-05-21T17:38:38.104Z,21.75
2023-05-21T17:41:05.368Z,22.05
2023-05-21T17:43:32.365Z,20.70
2023-05-21T17:45:59.523Z,21.60
2023-05-21T17:48:26.643Z,20.50
2023-05-21T17:50:53.709Z,20.60
2023-05-21T17:53:20.681Z,20.88
2023-05-21T17:55:47.645Z,21.90
2023-05-21T17:58:14.738Z,20.45
2023-05-21T18:00:41.800Z,20.77
2023-05-21T18:03:08.843Z,23.25
2023-05-21T18:05:36.541Z,21.80
2023-05-21T18:08:04.101Z,22.40
2023-05-21T18:10:31.058Z,22.17
2023-05-21T18:12:57.988Z,21.98
2023-05-21T18:15:24.981Z,22.23
2023-05-21T18:17:51.961Z,22.35
2023-05-21T18:20:19.015Z,21.15
2023-05-21T18:22:46.013Z,22.38
2023-05-21T18:25:12.969Z,23.38
2023-05-21T18:27:39.934Z,22.25
2023-05-21T18:30:08.438Z,23.35
2023-05-21T18:32:38.588Z,22.70
2023-05-21T18:35:11.173Z,22.10
2023-05-21T18:37:41.634Z,21.17
2023-05-21T18:40:09.356Z,22.30
2023-05-21T18:42:37.160Z,22.70
2023-05-21T18:45:09.045Z,21.40
2023-05-21T18:47:36.547Z,21.52
2023-05-21T18:50:03.650Z,21.70
2023-05-21T18:52:30.623Z,23.80
2023-05-21T18:54:57.587Z,21.50
2023-05-21T18:57:24.595Z,23.45
2023-05-21T18:59:51.596Z,22.77
2023-05-21T19:02:19.734Z,22.27
2023-05-21T19:04:46.769Z,23.13
2023-05-21T19:07:15.772Z,23.23
2023-05-21T19:09:42.823Z,22.58
2023-05-21T19:12:09.942Z,22.55
2023-05-21T19:14:36.874Z,22.10
2023-05-21T19:17:03.871Z,24.25
2023-05-21T19:19:30.945Z,22.38
2023-05-21T19:21:58.369Z,21.52
2023-05-21T19:24:25.322Z,23.38
2023-05-21T19:26:52.253Z,21.02
2023-05-21T19:29:19.224Z,20.42
2023-05-21T19:31:46.424Z,20.80
2023-05-21T19:34:13.379Z,20.20
2023-05-21T19:36:52.241Z,20.17
2023-05-21T19:39:20.339Z,20.00
2023-05-21T19:41:47.289Z,20.95
2023-05-21T19:44:14.311Z,19.67
2023-05-21T19:46:41.296Z,20.05
2023-05-21T19:49:10.441Z,18.95
2023-05-21T19:51:37.403Z,20.42
2023-05-21T19:54:04.488Z,20.08
2023-05-21T19:56:31.472Z,18.75
2023-05-21T19:58:58.467Z,19.30
2023-05-21T20:01:25.869Z,19.63
2023-05-21T20:03:52.915Z,19.00
2023-05-21T20:06:20.708Z,17.30
2023-05-21T20:08:48.055Z,17.88
2023-05-21T20:11:15.260Z,17.77
2023-05-21T20:13:42.426Z,21.10
2023-05-21T20:16:10.508Z,20.67
2023-05-21T20:18:37.569Z,20.80
2023-05-21T20:21:06.377Z,20.25
2023-05-21T20:23:33.372Z,21.55
2023-05-21T20:26:00.362Z,21.33
2023-05-21T20:28:27.309Z,20.75
2023-05-21T20:30:59.676Z,19.33
2023-05-21T20:33:30.008Z,19.35
2023-05-21T20:35:56.999Z,18.95
2023-05-21T20:38:27.343Z,19.75
2023-05-21T20:40:55.521Z,18.73
2023-05-21T20:43:24.440Z,19.88
2023-05-21T20:46:02.253Z,20.60
2023-05-21T20:48:29.859Z,17.27
2023-05-21T20:51:00.003Z,20.02
2023-05-21T20:53:27.315Z,18.73
2023-05-21T20:55:54.659Z,19.13
2023-05-21T20:58:25.439Z,18.23
2023-05-21T21:00:52.693Z,20.30
2023-05-21T21:03:21.539Z,19.10
2023-05-21T21:05:48.853Z,18.10
2023-05-21T21:08:16.161Z,17.17
2023-05-21T21:10:46.685Z,18.67
2023-05-21T21:13:14.406Z,17.52
2023-05-21T21:15:42.592Z,17.85
2023-05-21T21:18:12.382Z,16.70
2023-05-21T21:20:41.332Z,18.23
2023-05-21T21:23:08.626Z,17.23
2023-05-21T21:25:35.826Z,17.08
2023-05-21T21:28:02.783Z,19.02
2023-05-21T21:30:29.732Z,18.38
2023-05-21T21:32:56.680Z,18.05
2023-05-21T21:35:23.799Z,18.88
2023-05-21T21:37:50.896Z,19.38
2023-05-21T21:40:18.036Z,16.98
2023-05-21T21:42:44.968Z,16.80
2023-05-21T21:45:12.000Z,17.48
2023-05-21T21:47:39.002Z,16.52
2023-05-21T21:50:07.549Z,17.05
2023-05-21T21:52:34.604Z,16.63
2023-05-21T21:55:01.568Z,17.25
2023-05-21T21:57:29.917Z,15.68
2023-05-21T21:59:56.906Z,16.30
2023-05-21T22:02:23.899Z,16.65
2023-05-21T22:04:50.957Z,16.20
2023-05-21T22:07:18.115Z,17.13
2023-05-21T22:09:45.787Z,17.60
2023-05-21T22:12:13.522Z,16.13
2023-05-21T22:14:40.462Z,16.67
2023-05-21T22:17:08.610Z,17.13
2023-05-21T22:19:35.894Z,16.35
2023-05-21T22:22:04.186Z,15.18
2023-05-21T22:24:33.218Z,14.63
2023-05-21T22:27:00.524Z,16.05
2023-05-21T22:29:27.540Z,16.20
2023-05-21T22:31:54.590Z,16.33
2023-05-21T22:34:22.933Z,15.07
2023-05-21T22:36:49.978Z,16.55
2023-05-21T22:39:17.940Z,15.18
2023-05-21T22:41:45.600Z,15.55
2023-05-21T22:44:12.589Z,14.48
2023-05-21T22:46:42.078Z,14.63
2023-05-21T22:49:10.244Z,18.90
2023-05-21T22:51:37.557Z,13.48
2023-05-21T22:54:04.992Z,14.02
2023-05-21T22:56:31.930Z,14.93
2023-05-21T22:58:59.567Z,13.32
2023-05-21T23:01:26.655Z,15.38
2023-05-21T23:03:53.697Z,13.63
2023-05-21T23:06:20.903Z,14.13
2023-05-21T23:08:47.851Z,14.60
2023-05-21T23:11:14.968Z,14.52
2023-05-21T23:13:41.925Z,14.05
2023-05-21T23:16:08.919Z,14.18
2023-05-21T23:18:36.006Z,13.52
2023-05-21T23:21:03.156Z,14.75
2023-05-21T23:23:30.491Z,12.20
2023-05-21T23:25:58.825Z,13.77
2023-05-21T23:28:26.412Z,12.88
2023-05-21T23:30:53.374Z,12.90
2023-05-21T23:33:20.374Z,14.32
2023-05-21T23:35:47.279Z,13.38
2023-05-21T23:38:14.297Z,14.82
2023-05-21T23:40:41.936Z,12.57
2023-05-21T23:43:08.883Z,13.35
2023-05-21T23:45:35.956Z,13.07
2023-05-21T23:48:03.040Z,12.80
2023-05-21T23:50:30.038Z,13.45
2023-05-21T23:52:57.018Z,12.13
2023-05-21T23:55:24.076Z,13.63
2023-05-21T23:57:51.035Z,12.73
